Time;durP1;ratioP1;P1;durP2;ratioP2;P2;SDS_P1;SDS_P2;PMS_P1;PMS_P2;Temp;Humidity;BMP_temperature;BMP_pressure;BME280_temperature;BME280_humidity;BME280_pressure;Samples;Min_cycle;Max_cycle;Signal;HPM_P1;HPM_P2
2022/02/03 00:26:32;;;;;;;;;;;7.50;99.90;;;;;;5050542;28;19928;-79
2022/02/03 00:28:59;;;;;;;;;;;7.60;99.90;;;;;;5035450;28;19909;-79
2022/02/03 00:32:01;;;;;;;;;;;7.60;99.90;;;;;;5055382;28;20007;-79
2022/02/03 00:34:26;;;;;;;;;;;7.60;99.90;;;;;;5053158;28;19967;-79
2022/02/03 00:50:30;;;;;;;;;;;7.40;99.90;;;;;;5054778;28;20051;-79
2022/02/03 00:52:58;;;;;;;;;;;7.50;99.90;;;;;;5054919;28;20108;-78
2022/02/03 00:55:23;;;;;;;;;;;7.50;99.90;;;;;;5054658;28;19920;-79
2022/02/03 00:57:51;;;;;;;;;;;7.50;99.90;;;;;;5050063;28;19909;-79
2022/02/03 01:00:17;;;;;;;;;;;7.60;99.90;;;;;;5033576;28;20277;-80
2022/02/03 01:02:58;;;;;;;;;;;7.70;99.90;;;;;;5033529;28;19909;-79
2022/02/03 01:05:26;;;;;;;;;;;7.60;99.90;;;;;;5034894;28;20340;-80
2022/02/03 01:07:52;;;;;;;;;;;7.60;99.90;;;;;;5033432;28;19915;-79
2022/02/03 01:10:26;;;;;;;;;;;7.40;99.90;;;;;;5054328;28;19908;-79
2022/02/03 01:18:22;;;;;;;;;;;7.30;99.90;;;;;;5064390;28;19909;-79
2022/02/03 01:45:37;;;;;;;;;;;7.40;99.90;;;;;;5054101;28;20272;-80
2022/02/03 01:49:09;;;;;;;;;;;7.40;99.90;;;;;;5043418;28;19909;-79
2022/02/03 01:53:40;;;;;;;;;;;7.60;99.90;;;;;;5073387;28;19918;-79
2022/02/03 01:56:26;;;;;;;;;;;7.60;99.90;;;;;;5071576;28;20021;-80
2022/02/03 01:58:56;;;;;;;;;;;7.60;99.90;;;;;;5050893;28;20377;-79
2022/02/03 02:01:28;;;;;;;;;;;7.40;99.90;;;;;;5035775;28;20000;-79
2022/02/03 02:04:10;;;;;;;;;;;7.40;99.90;;;;;;5053603;28;20266;-79
2022/02/03 02:06:55;;;;;;;;;;;7.30;99.90;;;;;;5033995;28;19909;-79
2022/02/03 02:09:23;;;;;;;;;;;7.30;99.90;;;;;;5053109;28;19931;-79
2022/02/03 02:12:06;;;;;;;;;;;7.30;99.90;;;;;;5053544;28;19948;-79
2022/02/03 02:36:49;;;;;;;;;;;7.30;99.90;;;;;;5052617;28;19951;-79
2022/02/03 02:39:23;;;;;;;;;;;7.40;99.90;;;;;;5052428;28;19931;-79
2022/02/03 02:44:31;;;;;;;;;;;7.20;99.90;;;;;;5053218;28;19909;-79
2022/02/03 02:46:57;;;;;;;;;;;7.30;99.90;;;;;;5050770;28;19958;-78
2022/02/03 02:49:24;;;;;;;;;;;7.20;99.90;;;;;;5034500;28;19909;-79
2022/02/03 02:51:52;;;;;;;;;;;7.20;99.90;;;;;;5052946;28;19909;-80
2022/02/03 03:02:39;;;;;;;;;;;7.10;99.90;;;;;;5052858;28;19999;-79
2022/02/03 03:33:21;;;;;;;;;;;6.80;99.90;;;;;;5072654;28;19912;-78
2022/02/03 03:36:00;;;;;;;;;;;6.70;99.90;;;;;;5072705;28;19908;-79
2022/02/03 03:38:31;;;;;;;;;;;6.70;99.90;;;;;;5050320;28;19909;-78
2022/02/03 03:40:58;;;;;;;;;;;6.80;99.90;;;;;;5052438;28;19909;-78
2022/02/03 03:43:27;;;;;;;;;;;6.80;99.90;;;;;;5052460;28;19913;-79
2022/02/03 03:45:53;;;;;;;;;;;6.80;99.90;;;;;;5052529;28;19916;-79
2022/02/03 03:48:19;;;;;;;;;;;6.70;99.90;;;;;;5056343;28;19940;-79
2022/02/03 03:50:49;;;;;;;;;;;6.80;99.90;;;;;;5054158;28;19908;-80
2022/02/03 03:53:24;;;;;;;;;;;6.80;99.90;;;;;;5055950;28;19913;-78
2022/02/03 04:29:53;;;;;;;;;;;6.80;99.90;;;;;;5055180;28;19916;-79
2022/02/03 04:38:04;;;;;;;;;;;7.00;99.90;;;;;;5061883;28;19932;-79
2022/02/03 04:41:17;;;;;;;;;;;7.10;99.90;;;;;;5054447;28;19909;-79
2022/02/03 05:01:18;;;;;;;;;;;7.30;99.90;;;;;;5054268;28;19955;-80
2022/02/03 05:04:19;;;;;;;;;;;7.20;99.90;;;;;;5053604;28;19915;-79
2022/02/03 05:09:35;;;;;;;;;;;7.10;99.90;;;;;;5052930;28;19944;-80
2022/02/03 05:12:39;;;;;;;;;;;7.20;99.90;;;;;;5036817;28;19908;-80
2022/02/03 05:20:44;;;;;;;;;;;7.00;99.90;;;;;;5053896;28;19956;-79
2022/02/03 06:09:27;;;;;;;;;;;6.90;99.90;;;;;;5047151;28;20012;-79
2022/02/03 06:12:30;;;;;;;;;;;7.10;99.90;;;;;;5053656;28;19908;-79
2022/02/03 06:15:05;;;;;;;;;;;7.10;99.90;;;;;;5054945;28;19920;-79
2022/02/03 06:17:37;;;;;;;;;;;7.20;99.90;;;;;;5039843;28;20019;-80
2022/02/03 06:22:54;;;;;;;;;;;6.90;99.90;;;;;;5073387;28;19923;-79
2022/02/03 06:27:49;;;;;;;;;;;6.90;99.90;;;;;;5066489;28;19916;-81
2022/02/03 06:30:18;;;;;;;;;;;6.70;99.90;;;;;;5045437;28;20399;-80
2022/02/03 06:32:44;;;;;;;;;;;6.60;99.90;;;;;;5073107;28;19917;-79
2022/02/03 06:35:11;;;;;;;;;;;6.60;99.90;;;;;;5055289;28;20322;-79
2022/02/03 06:37:37;;;;;;;;;;;6.50;99.90;;;;;;5058943;28;20416;-79
2022/02/03 06:40:04;;;;;;;;;;;6.70;99.90;;;;;;5072449;28;19939;-80
2022/02/03 06:42:29;;;;;;;;;;;6.80;99.90;;;;;;5072923;28;19916;-78
2022/02/03 06:45:01;;;;;;;;;;;6.80;99.90;;;;;;5073029;28;19909;-80
2022/02/03 06:47:33;;;;;;;;;;;6.80;99.90;;;;;;5059383;28;19916;-80
2022/02/03 06:53:00;;;;;;;;;;;6.90;99.90;;;;;;5073215;28;20320;-79
2022/02/03 06:57:53;;;;;;;;;;;6.80;99.90;;;;;;5069723;28;19995;-79
2022/02/03 07:00:23;;;;;;;;;;;6.90;99.90;;;;;;5054146;28;19909;-79
2022/02/03 07:02:52;;;;;;;;;;;6.90;99.90;;;;;;5072876;28;19915;-79
2022/02/03 07:05:18;;;;;;;;;;;7.00;99.90;;;;;;5054915;28;19909;-78
2022/02/03 07:07:44;;;;;;;;;;;6.90;99.90;;;;;;5066675;28;19923;-79
2022/02/03 07:10:10;;;;;;;;;;;6.70;99.90;;;;;;5034200;28;20351;-79
2022/02/03 07:12:37;;;;;;;;;;;6.60;99.90;;;;;;5034821;28;20348;-79
2022/02/03 07:15:04;;;;;;;;;;;6.60;99.90;;;;;;5031382;28;19917;-78
2022/02/03 07:17:30;;;;;;;;;;;6.70;99.90;;;;;;5031482;28;19967;-80
2022/02/03 07:20:01;;;;;;;;;;;6.80;99.90;;;;;;5052178;28;19913;-79
2022/02/03 07:22:26;;;;;;;;;;;6.80;99.90;;;;;;5034649;28;19951;-79
2022/02/03 07:24:52;;;;;;;;;;;6.70;99.90;;;;;;5034869;28;19909;-80
2022/02/03 07:27:18;;;;;;;;;;;6.70;99.90;;;;;;5055368;28;20459;-79
2022/02/03 07:29:44;;;;;;;;;;;6.60;99.90;;;;;;5054840;28;19967;-79
2022/02/03 07:32:09;;;;;;;;;;;6.60;99.90;;;;;;5056525;28;20235;-79
2022/02/03 07:34:35;;;;;;;;;;;6.50;99.90;;;;;;5056624;28;19959;-79
2022/02/03 07:37:00;;;;;;;;;;;6.60;99.90;;;;;;5037112;28;19916;-80
2022/02/03 07:39:26;;;;;;;;;;;6.70;99.90;;;;;;5054465;28;19963;-80
2022/02/03 07:41:52;;;;;;;;;;;6.50;99.90;;;;;;5056318;28;19916;-79
2022/02/03 07:44:18;;;;;;;;;;;6.60;99.90;;;;;;5038521;28;19909;-79
2022/02/03 07:46:43;;;;;;;;;;;6.50;99.90;;;;;;5055010;28;19909;-78
2022/02/03 07:49:12;;;;;;;;;;;6.60;99.90;;;;;;5054320;28;20281;-79
2022/02/03 07:51:38;;;;;;;;;;;6.70;99.90;;;;;;5056164;28;19909;-80
2022/02/03 07:54:04;;;;;;;;;;;6.80;99.90;;;;;;5056023;28;20407;-80
2022/02/03 07:56:31;;;;;;;;;;;7.00;99.90;;;;;;5050167;28;20334;-79
2022/02/03 07:58:56;;;;;;;;;;;7.00;99.90;;;;;;5034730;28;19909;-78
2022/02/03 08:01:22;;;;;;;;;;;6.90;99.90;;;;;;5035386;28;19931;-78
2022/02/03 08:03:48;;;;;;;;;;;7.00;99.90;;;;;;5018233;28;20391;-79
2022/02/03 08:06:20;;;;;;;;;;;7.30;99.90;;;;;;5017286;28;19910;-80
2022/02/03 08:08:51;;;;;;;;;;;7.20;99.90;;;;;;5045784;28;20415;-80
2022/02/03 08:11:23;;;;;;;;;;;7.30;99.90;;;;;;5055214;28;20377;-79
2022/02/03 08:14:04;;;;;;;;;;;7.40;99.90;;;;;;5055735;28;19948;-80
2022/02/03 08:16:35;;;;;;;;;;;7.60;99.90;;;;;;5065999;28;19921;-79
2022/02/03 08:19:10;;;;;;;;;;;7.60;99.90;;;;;;5067276;28;20384;-78
2022/02/03 08:21:40;;;;;;;;;;;7.60;99.90;;;;;;5075071;28;19908;-80
2022/02/03 08:27:59;;;;;;;;;;;7.60;99.90;;;;;;5008510;28;19921;-79
2022/02/03 08:32:36;;;;;;;;;;;8.00;99.90;;;;;;5075237;28;19919;-79
2022/02/03 08:37:43;;;;;;;;;;;8.10;99.90;;;;;;5072854;28;19912;-79
2022/02/03 08:40:13;;;;;;;;;;;8.10;99.90;;;;;;5054668;28;19909;-79
2022/02/03 08:42:39;;;;;;;;;;;8.10;99.90;;;;;;5055165;28;19912;-79
2022/02/03 08:45:05;;;;;;;;;;;8.00;99.90;;;;;;5055210;28;19916;-79
2022/02/03 08:47:31;;;;;;;;;;;7.90;99.90;;;;;;5065586;28;20289;-79
2022/02/03 08:49:56;;;;;;;;;;;7.80;99.90;;;;;;5053914;28;19909;-80
2022/02/03 08:52:31;;;;;;;;;;;7.80;99.90;;;;;;5054976;28;19948;-79
2022/02/03 08:55:21;;;;;;;;;;;7.80;99.90;;;;;;5036800;28;19909;-79
2022/02/03 09:00:47;;;;;;;;;;;8.20;99.90;;;;;;5063292;28;20368;-79
2022/02/03 09:35:59;;;;;;;;;;;8.20;99.90;;;;;;5054657;28;19951;-79
2022/02/03 10:02:24;;;;;;;;;;;8.50;99.90;;;;;;5033813;28;19909;-79
2022/02/03 10:04:53;;;;;;;;;;;8.90;99.90;;;;;;5033997;28;19916;-78
2022/02/03 10:07:21;;;;;;;;;;;9.10;99.90;;;;;;5043449;28;20296;-79
2022/02/03 10:09:52;;;;;;;;;;;9.30;99.90;;;;;;5033689;28;19920;-80
2022/02/03 10:12:18;;;;;;;;;;;9.00;99.90;;;;;;5035354;28;19958;-79
2022/02/03 10:14:47;;;;;;;;;;;9.10;99.90;;;;;;5054413;28;19909;-79
2022/02/03 10:17:14;;;;;;;;;;;9.40;99.90;;;;;;5062229;28;20011;-79
2022/02/03 10:19:45;;;;;;;;;;;9.50;99.90;;;;;;5068687;28;20395;-81
2022/02/03 10:22:22;;;;;;;;;;;9.60;99.90;;;;;;5072964;28;19916;-79
2022/02/03 10:24:49;;;;;;;;;;;9.60;99.90;;;;;;5055195;28;19909;-79
2022/02/03 10:27:26;;;;;;;;;;;10.00;99.90;;;;;;5061669;28;20329;-79
2022/02/03 10:30:12;;;;;;;;;;;9.80;99.90;;;;;;5051346;28;19916;-81
2022/02/03 10:32:43;;;;;;;;;;;9.60;99.90;;;;;;5053255;28;19912;-79
2022/02/03 10:35:15;;;;;;;;;;;9.60;99.90;;;;;;5035367;28;19909;-78
2022/02/03 10:37:45;;;;;;;;;;;9.40;99.90;;;;;;5033355;28;20050;-79
2022/02/03 10:40:40;;;;;;;;;;;9.40;99.90;;;;;;5052521;28;19913;-81
2022/02/03 10:50:49;;;;;;;;;;;9.70;99.90;;;;;;5052788;28;19915;-79
2022/02/03 10:53:43;;;;;;;;;;;9.80;99.90;;;;;;5052939;28;19913;-78
2022/02/03 10:56:24;;;;;;;;;;;9.80;99.90;;;;;;5033617;28;19939;-79
2022/02/03 11:01:45;;;;;;;;;;;10.20;99.90;;;;;;5051626;28;19956;-79
2022/02/03 11:07:06;;;;;;;;;;;10.40;99.90;;;;;;5059408;28;19915;-79
2022/02/03 11:09:54;;;;;;;;;;;10.20;99.90;;;;;;5052511;28;19996;-78
2022/02/03 11:12:23;;;;;;;;;;;10.20;99.90;;;;;;5052727;28;19909;-79
2022/02/03 11:14:49;;;;;;;;;;;10.60;99.90;;;;;;5034701;28;20003;-79
2022/02/03 11:17:16;;;;;;;;;;;10.90;99.90;;;;;;5050039;28;19932;-81
2022/02/03 11:19:48;;;;;;;;;;;11.80;99.90;;;;;;5034970;28;19975;-80
2022/02/03 11:22:19;;;;;;;;;;;11.90;99.90;;;;;;5032218;28;19909;-81
2022/02/03 11:24:51;;;;;;;;;;;11.50;99.90;;;;;;5032591;28;20012;-79
2022/02/03 11:27:34;;;;;;;;;;;11.60;99.90;;;;;;5031508;28;19944;-78
2022/02/03 11:30:48;;;;;;;;;;;11.80;99.90;;;;;;5031040;28;20456;-79
2022/02/03 11:41:48;;;;;;;;;;;12.00;99.90;;;;;;5052212;28;19909;-79
2022/02/03 11:44:28;;;;;;;;;;;12.60;99.90;;;;;;5052472;28;20384;-80
2022/02/03 11:48:13;;;;;;;;;;;12.40;99.90;;;;;;5029743;28;19916;-80
2022/02/03 11:50:15;;;;;;;;;;;13.30;99.90;;;;;;5030609;28;19936;-80
2022/02/03 12:00:50;;;;;;;;;;;13.90;99.90;;;;;;5033189;28;19909;-81
2022/02/03 12:03:45;;;;;;;;;;;13.50;99.90;;;;;;5032772;28;20071;-80
2022/02/03 12:15:29;;;;;;;;;;;11.90;99.90;;;;;;5037542;28;20349;-79
2022/02/03 12:20:40;;;;;;;;;;;11.80;99.90;;;;;;5074947;28;19909;-79
2022/02/03 12:23:27;;;;;;;;;;;11.80;99.90;;;;;;5075792;28;19908;-80
2022/02/03 12:26:02;;;;;;;;;;;12.40;99.90;;;;;;5075725;28;19915;-79
2022/02/03 12:28:49;;;;;;;;;;;12.40;99.90;;;;;;5035935;28;19992;-81
2022/02/03 12:39:06;;;;;;;;;;;11.40;99.90;;;;;;5062590;28;20290;-80
2022/02/03 12:41:36;;;;;;;;;;;11.60;99.90;;;;;;5074937;28;19944;-80
2022/02/03 12:44:07;;;;;;;;;;;12.00;99.90;;;;;;5075366;28;19945;-79
2022/02/03 12:46:33;;;;;;;;;;;12.30;99.90;;;;;;5055814;28;19915;-79
2022/02/03 12:48:59;;;;;;;;;;;12.40;99.90;;;;;;5073733;28;19913;-81
2022/02/03 12:51:25;;;;;;;;;;;12.20;99.90;;;;;;5074787;28;19938;-79
2022/02/03 12:53:51;;;;;;;;;;;12.20;99.90;;;;;;5074912;28;20009;-79
2022/02/03 12:56:22;;;;;;;;;;;12.30;99.90;;;;;;5054190;28;20388;-78
2022/02/03 12:58:52;;;;;;;;;;;12.20;99.90;;;;;;5053707;28;19918;-80
2022/02/03 13:01:27;;;;;;;;;;;12.30;99.90;;;;;;5054492;28;20287;-80
2022/02/03 13:03:53;;;;;;;;;;;12.60;99.90;;;;;;5054942;28;20003;-79
2022/02/03 13:06:22;;;;;;;;;;;12.90;99.90;;;;;;5055363;28;20014;-80
2022/02/03 13:08:51;;;;;;;;;;;12.90;99.90;;;;;;5065979;28;19909;-79
2022/02/03 13:11:37;;;;;;;;;;;13.40;99.90;;;;;;5036334;28;19915;-81
2022/02/03 13:17:03;;;;;;;;;;;12.70;99.90;;;;;;5056922;28;20003;-80
2022/02/03 13:27:50;;;;;;;;;;;12.30;99.90;;;;;;5049298;28;20055;-80
2022/02/03 13:30:32;;;;;;;;;;;12.40;99.90;;;;;;5072850;28;19909;-80
2022/02/03 13:33:02;;;;;;;;;;;12.70;99.90;;;;;;5074059;28;19999;-79
2022/02/03 13:35:42;;;;;;;;;;;13.20;99.90;;;;;;5056466;28;19909;-80
2022/02/03 13:38:19;;;;;;;;;;;13.40;99.90;;;;;;5068743;28;19915;-79
2022/02/03 13:40:45;;;;;;;;;;;13.40;99.90;;;;;;5037345;28;19917;-80
2022/02/03 13:43:13;;;;;;;;;;;13.20;99.90;;;;;;5074154;28;19970;-79
2022/02/03 13:45:43;;;;;;;;;;;13.00;99.90;;;;;;5074219;28;19908;-79
2022/02/03 13:48:16;;;;;;;;;;;13.30;99.90;;;;;;5066565;28;20015;-79
2022/02/03 13:50:48;;;;;;;;;;;13.40;99.90;;;;;;5053694;28;19962;-78
2022/02/03 13:53:19;;;;;;;;;;;14.00;99.90;;;;;;5035853;28;20407;-80
2022/02/03 14:15:03;;;;;;;;;;;18.60;99.90;;;;;;5053509;28;19917;-80
2022/02/03 14:20:23;;;;;;;;;;;21.50;89.70;;;;;;5068764;28;19908;-79
2022/02/03 14:23:01;;;;;;;;;;;22.30;90.20;;;;;;5054819;28;19909;-81
2022/02/03 14:28:10;;;;;;;;;;;20.20;91.20;;;;;;5052796;28;19930;-81
2022/02/03 14:30:42;;;;;;;;;;;19.40;91.00;;;;;;5073055;28;20345;-80
2022/02/03 14:33:08;;;;;;;;;;;17.80;92.80;;;;;;5072844;28;19912;-79
2022/02/03 14:35:34;;;;;;;;;;;19.50;93.60;;;;;;5055167;28;20255;-79
2022/02/03 14:38:11;;;;;;;;;;;20.60;91.30;;;;;;5055626;28;20412;-80
2022/02/03 14:43:17;;;;;;;;;;;22.90;86.00;;;;;;5053226;28;19935;-80
2022/02/03 14:45:43;;;;;;;;;;;20.00;87.70;;;;;;5053226;28;19908;-79
2022/02/03 14:48:11;;;;;;;;;;;21.10;87.90;;;;;;5034577;28;19909;-80
2022/02/03 14:50:37;;;;;;;;;;;21.20;83.60;;;;;;5055160;28;19917;-80
2022/02/03 14:53:09;;;;;;;;;;;22.10;83.60;;;;;;5054343;28;19916;-80
2022/02/03 14:58:24;;;;;;;;;;;21.90;80.80;;;;;;5050986;28;19924;-80
2022/02/03 15:00:50;;;;;;;;;;;23.00;79.90;;;;;;5034612;28;19978;-80
2022/02/03 15:03:17;;;;;;;;;;;21.10;80.70;;;;;;5054818;28;20384;-80
2022/02/03 15:05:43;;;;;;;;;;;19.80;84.70;;;;;;5072977;28;19912;-80
2022/02/03 15:08:21;;;;;;;;;;;17.20;91.20;;;;;;5067314;28;20288;-80
2022/02/03 15:11:05;;;;;;;;;;;15.80;94.30;;;;;;5052765;28;19913;-79
2022/02/03 15:15:57;;;;;;;;;;;16.00;97.40;;;;;;5052646;28;19928;-79
2022/02/03 15:18:23;;;;;;;;;;;17.00;95.20;;;;;;5046569;28;19923;-78
2022/02/03 15:20:48;;;;;;;;;;;17.70;93.50;;;;;;5052727;28;19912;-79
2022/02/03 15:23:14;;;;;;;;;;;18.30;93.20;;;;;;5071534;28;19974;-80
2022/02/03 15:25:40;;;;;;;;;;;17.80;93.60;;;;;;5072756;28;20312;-80
2022/02/03 15:28:05;;;;;;;;;;;16.70;95.60;;;;;;5067871;28;20057;-81
2022/02/03 15:30:31;;;;;;;;;;;16.10;96.70;;;;;;5052402;28;19909;-79
2022/02/03 15:32:57;;;;;;;;;;;15.60;97.80;;;;;;5051894;28;19920;-80
2022/02/03 15:37:52;;;;;;;;;;;14.30;99.90;;;;;;5065479;28;19954;-79
2022/02/03 15:40:22;;;;;;;;;;;14.30;99.90;;;;;;5070608;28;19908;-78
2022/02/03 15:43:00;;;;;;;;;;;13.90;99.90;;;;;;5053981;28;20026;-81
2022/02/03 15:45:26;;;;;;;;;;;13.90;99.90;;;;;;5072688;28;20430;-79
2022/02/03 15:47:58;;;;;;;;;;;13.50;99.90;;;;;;5055099;28;19934;-80
2022/02/03 16:17:06;;;;;;;;;;;11.60;99.90;;;;;;5072144;28;19927;-80
2022/02/03 16:19:49;;;;;;;;;;;11.40;99.90;;;;;;5061159;28;19909;-79
2022/02/03 16:55:04;;;;;;;;;;;10.50;99.90;;;;;;5054690;28;20140;-79
2022/02/03 16:57:30;;;;;;;;;;;10.50;99.90;;;;;;5034512;28;19909;-79
2022/02/03 17:00:15;;;;;;;;;;;10.60;99.90;;;;;;5053250;28;19908;-78
2022/02/03 17:02:41;;;;;;;;;;;10.60;99.90;;;;;;5054308;28;19909;-80
2022/02/03 17:05:07;;;;;;;;;;;10.60;99.90;;;;;;5036928;28;19916;-79
2022/02/03 17:07:33;;;;;;;;;;;10.60;99.90;;;;;;5052327;28;19995;-78
2022/02/03 17:09:59;;;;;;;;;;;10.60;99.90;;;;;;5067015;28;19920;-79
2022/02/03 17:12:24;;;;;;;;;;;10.50;99.90;;;;;;5074076;28;20101;-80
2022/02/03 17:14:50;;;;;;;;;;;10.50;99.90;;;;;;5074204;28;19912;-79
2022/02/03 17:17:19;;;;;;;;;;;10.30;99.90;;;;;;5051857;28;19923;-79
2022/02/03 17:19:45;;;;;;;;;;;10.20;99.90;;;;;;5061328;28;20097;-79
2022/02/03 17:22:12;;;;;;;;;;;10.20;99.90;;;;;;5053937;28;19962;-80
2022/02/03 17:24:43;;;;;;;;;;;10.20;99.90;;;;;;5054338;28;19909;-80
2022/02/03 17:27:19;;;;;;;;;;;10.20;99.90;;;;;;5059604;28;19932;-79
2022/02/03 17:30:02;;;;;;;;;;;10.20;99.90;;;;;;5060358;28;19916;-80
2022/02/03 18:02:55;;;;;;;;;;;10.20;99.90;;;;;;5073586;28;19920;-79
2022/02/03 18:30:20;;;;;;;;;;;10.70;99.90;;;;;;5051447;28;19939;-80
2022/02/03 18:33:14;;;;;;;;;;;10.90;99.90;;;;;;5052641;28;19912;-78
2022/02/03 18:54:16;;;;;;;;;;;10.80;99.90;;;;;;5033808;28;20377;-79
2022/02/03 18:56:52;;;;;;;;;;;10.80;99.90;;;;;;5028928;28;19909;-80
2022/02/03 18:59:54;;;;;;;;;;;10.80;99.90;;;;;;5039475;28;19909;-79
2022/02/03 19:16:16;;;;;;;;;;;10.50;99.90;;;;;;5020860;28;20381;-80
2022/02/03 20:08:05;;;;;;;;;;;10.20;99.90;;;;;;4986781;28;19921;-80
2022/02/03 20:10:38;;;;;;;;;;;10.20;99.90;;;;;;5028825;28;19909;-79
2022/02/03 20:13:04;;;;;;;;;;;10.00;99.90;;;;;;5075306;28;19920;-80
2022/02/03 20:15:33;;;;;;;;;;;10.10;99.90;;;;;;5075261;28;19929;-80
2022/02/03 20:18:00;;;;;;;;;;;10.00;99.90;;;;;;5056760;28;19909;-79
2022/02/03 20:20:25;;;;;;;;;;;10.10;99.90;;;;;;5055607;28;19913;-79
2022/02/03 20:22:51;;;;;;;;;;;10.10;99.90;;;;;;5060786;28;19959;-80
2022/02/03 20:25:17;;;;;;;;;;;10.10;99.90;;;;;;5074367;28;19916;-78
2022/02/03 20:27:43;;;;;;;;;;;10.00;99.90;;;;;;5039148;28;20272;-79
2022/02/03 20:30:10;;;;;;;;;;;10.00;99.90;;;;;;5052709;28;19916;-79
2022/02/03 20:32:36;;;;;;;;;;;9.90;99.90;;;;;;5053542;28;19920;-80
2022/02/03 20:35:02;;;;;;;;;;;9.90;99.90;;;;;;5054526;28;19919;-79
2022/02/03 20:37:28;;;;;;;;;;;10.00;99.90;;;;;;5045073;28;19912;-79
2022/02/03 20:39:54;;;;;;;;;;;9.90;99.90;;;;;;5062161;28;19916;-79
2022/02/03 20:42:19;;;;;;;;;;;9.90;99.90;;;;;;5053689;28;19916;-80
2022/02/03 20:44:46;;;;;;;;;;;9.90;99.90;;;;;;5054244;28;19920;-79
2022/02/03 20:47:12;;;;;;;;;;;9.90;99.90;;;;;;5060292;28;19908;-79
2022/02/03 20:49:38;;;;;;;;;;;9.90;99.90;;;;;;5053889;28;19913;-79
2022/02/03 20:52:04;;;;;;;;;;;9.90;99.90;;;;;;5074365;28;19915;-79
2022/02/03 20:54:29;;;;;;;;;;;9.90;99.90;;;;;;5053473;28;19913;-79
2022/02/03 20:56:55;;;;;;;;;;;9.90;99.90;;;;;;5051384;28;19919;-79
2022/02/03 20:59:27;;;;;;;;;;;9.90;99.90;;;;;;5043220;28;20360;-78
2022/02/03 21:01:54;;;;;;;;;;;9.90;99.90;;;;;;5074137;28;19909;-80
2022/02/03 21:04:58;;;;;;;;;;;9.80;99.90;;;;;;5073303;28;20376;-80
2022/02/03 21:07:24;;;;;;;;;;;9.90;99.90;;;;;;5060612;28;19909;-79
2022/02/03 21:09:49;;;;;;;;;;;9.90;99.90;;;;;;5065010;28;19991;-80
2022/02/03 21:12:15;;;;;;;;;;;9.90;99.90;;;;;;5073632;28;20047;-79
2022/02/03 21:14:41;;;;;;;;;;;9.90;99.90;;;;;;4987964;28;2616272;-79
2022/02/03 21:17:07;;;;;;;;;;;9.80;99.90;;;;;;5064936;28;19962;-80
2022/02/03 21:19:32;;;;;;;;;;;9.70;99.90;;;;;;5053579;28;19908;-78
2022/02/03 21:21:58;;;;;;;;;;;9.80;99.90;;;;;;5054756;28;19915;-79
2022/02/03 21:24:24;;;;;;;;;;;9.90;99.90;;;;;;5054000;28;20000;-80
2022/02/03 21:26:52;;;;;;;;;;;9.80;99.90;;;;;;5052073;28;20319;-79
2022/02/03 21:29:18;;;;;;;;;;;9.80;99.90;;;;;;5055946;28;19909;-79
2022/02/03 21:31:43;;;;;;;;;;;9.80;99.90;;;;;;5036519;28;19932;-80
2022/02/03 21:34:14;;;;;;;;;;;9.80;99.90;;;;;;5069065;28;19913;-80
2022/02/03 21:36:41;;;;;;;;;;;9.90;99.90;;;;;;5065918;28;19912;-79
2022/02/03 21:39:06;;;;;;;;;;;9.90;99.90;;;;;;5052733;28;19916;-79
2022/02/03 21:41:32;;;;;;;;;;;9.90;99.90;;;;;;5054290;28;20285;-80
2022/02/03 21:43:58;;;;;;;;;;;9.80;99.90;;;;;;5052826;28;19948;-80
2022/02/03 21:46:23;;;;;;;;;;;9.90;99.90;;;;;;5053958;28;19970;-79
2022/02/03 21:48:50;;;;;;;;;;;9.80;99.90;;;;;;5073082;28;20292;-79
2022/02/03 21:51:23;;;;;;;;;;;9.80;99.90;;;;;;5053441;28;20011;-79
2022/02/03 21:53:49;;;;;;;;;;;9.80;99.90;;;;;;5035351;28;20023;-79
2022/02/03 21:56:15;;;;;;;;;;;9.90;99.90;;;;;;5054724;28;19919;-79
2022/02/03 21:58:41;;;;;;;;;;;9.90;99.90;;;;;;5036093;28;19916;-79
2022/02/03 22:01:07;;;;;;;;;;;9.80;99.90;;;;;;5052219;28;19909;-79
2022/02/03 22:03:32;;;;;;;;;;;9.80;99.90;;;;;;5053485;28;19916;-80
2022/02/03 22:05:59;;;;;;;;;;;9.80;99.90;;;;;;5053395;28;19956;-79
2022/02/03 22:08:25;;;;;;;;;;;9.90;99.90;;;;;;5069864;28;19908;-80
2022/02/03 22:10:51;;;;;;;;;;;9.80;99.90;;;;;;5055284;28;19936;-80
2022/02/03 22:13:18;;;;;;;;;;;9.80;99.90;;;;;;5053195;28;20272;-80
2022/02/03 22:15:43;;;;;;;;;;;9.70;99.90;;;;;;5053518;28;19971;-79
2022/02/03 22:18:14;;;;;;;;;;;9.80;99.90;;;;;;5033174;28;20332;-79
2022/02/03 22:20:47;;;;;;;;;;;9.70;99.90;;;;;;5027655;28;20104;-81
2022/02/03 22:39:17;;;;;;;;;;;9.70;99.90;;;;;;5033107;28;20377;-80
2022/02/03 22:49:37;;;;;;;;;;;9.70;99.90;;;;;;5033334;28;19909;-79
2022/02/03 22:52:03;;;;;;;;;;;9.60;99.90;;;;;;5033255;28;19957;-78
2022/02/03 22:54:29;;;;;;;;;;;9.50;99.90;;;;;;5028731;28;19913;-80
2022/02/03 22:56:54;;;;;;;;;;;9.60;99.90;;;;;;5032976;28;19910;-79
2022/02/03 23:02:04;;;;;;;;;;;9.60;99.90;;;;;;5032909;28;19932;-80
2022/02/03 23:04:31;;;;;;;;;;;9.50;99.90;;;;;;5031101;28;20318;-79
2022/02/03 23:07:05;;;;;;;;;;;9.60;99.90;;;;;;5033122;28;20264;-79
2022/02/03 23:09:46;;;;;;;;;;;9.60;99.90;;;;;;5033102;28;19910;-79
2022/02/03 23:12:40;;;;;;;;;;;9.70;99.90;;;;;;5033031;28;19931;-80
2022/02/03 23:22:32;;;;;;;;;;;9.50;99.90;;;;;;5052895;28;20385;-79
2022/02/03 23:24:59;;;;;;;;;;;9.40;99.90;;;;;;5031808;28;20270;-79
2022/02/03 23:30:06;;;;;;;;;;;9.40;99.90;;;;;;5052868;28;19913;-80
2022/02/03 23:32:32;;;;;;;;;;;9.40;99.90;;;;;;5034804;28;20377;-80
2022/02/03 23:35:12;;;;;;;;;;;9.30;99.90;;;;;;5060292;28;19912;-79
2022/02/03 23:37:40;;;;;;;;;;;9.30;99.90;;;;;;5072792;28;19909;-81
2022/02/03 23:40:20;;;;;;;;;;;9.40;99.90;;;;;;5072753;28;20058;-80
